TimeEST,TemperatureF,Dew PointF,Humidity,Sea Level PressureIn,VisibilityMPH,Wind Direction,Wind SpeedMPH,Gust SpeedMPH,PrecipitationIn,Events,Conditions,WindDirDegrees,DateUTC
12:52 AM,36.0,33.1,89,30.06,7.0,ESE,10.4,-,N/A,,Scattered Clouds,110,2012-12-20 05:52:00
1:52 AM,37.0,34.0,89,30.02,7.0,ESE,12.7,-,N/A,,Overcast,110,2012-12-20 06:52:00
2:52 AM,37.0,34.0,89,30.00,7.0,ESE,13.8,-,N/A,,Scattered Clouds,110,2012-12-20 07:52:00
3:52 AM,37.9,34.0,86,29.96,8.0,ESE,13.8,-,N/A,,Overcast,120,2012-12-20 08:52:00
4:52 AM,37.9,33.1,83,29.88,8.0,ESE,17.3,-,N/A,,Partly Cloudy,110,2012-12-20 09:52:00
5:52 AM,37.9,33.1,83,29.85,9.0,ESE,15.0,24.2,N/A,,Clear,120,2012-12-20 10:52:00
6:52 AM,37.9,33.1,83,29.81,9.0,ESE,12.7,20.7,N/A,,Clear,120,2012-12-20 11:52:00
7:52 AM,39.0,33.1,79,29.74,10.0,ESE,16.1,-,N/A,,Clear,110,2012-12-20 12:52:00
8:52 AM,42.1,33.1,70,29.68,10.0,ESE,19.6,29.9,N/A,,Clear,120,2012-12-20 13:52:00
9:52 AM,44.1,33.1,65,29.67,10.0,SE,19.6,26.5,N/A,,Scattered Clouds,130,2012-12-20 14:52:00
10:52 AM,45.0,34.0,65,29.65,9.0,SE,21.9,26.5,0.00,Rain,Light Rain,140,2012-12-20 15:52:00
11:52 AM,43.0,37.9,82,29.60,4.0,SE,19.6,28.8,0.14,Rain,Rain,140,2012-12-20 16:52:00
12:19 PM,42.8,39.2,87,29.57,6.0,SE,18.4,-,0.06,Rain,Rain,140,2012-12-20 17:19:00
12:36 PM,42.8,39.2,87,29.55,2.0,SSE,18.4,25.3,0.14,Rain,Heavy Rain,150,2012-12-20 17:36:00
12:49 PM,42.8,41.0,93,29.54,3.0,SSE,17.3,23.0,0.18,Rain,Rain,150,2012-12-20 17:49:00
12:52 PM,43.0,41.0,93,29.57,3.0,SSE,17.3,-,0.19,Rain,Rain,150,2012-12-20 17:52:00
1:10 PM,44.6,42.8,93,29.53,4.0,SSE,18.4,27.6,0.04,Rain,Rain,150,2012-12-20 18:10:00
1:52 PM,44.1,43.0,96,29.51,5.0,SSE,20.7,27.6,0.10,Rain,Light Rain,150,2012-12-20 18:52:00
2:52 PM,45.0,43.0,93,29.44,8.0,SE,17.3,24.2,0.07,Rain,Light Rain,140,2012-12-20 19:52:00
3:52 PM,46.0,44.1,93,29.36,10.0,SSE,23.0,38.0,0.01,,Overcast,150,2012-12-20 20:52:00
4:52 PM,46.0,44.1,93,29.33,5.0,SSE,20.7,32.2,N/A,,Overcast,150,2012-12-20 21:52:00
5:36 PM,44.6,44.6,100,29.29,2.0,South,19.6,27.6,0.05,,Overcast,170,2012-12-20 22:36:00
5:48 PM,46.4,44.6,93,29.28,5.0,SSE,20.7,28.8,0.05,,Overcast,160,2012-12-20 22:48:00
5:52 PM,46.0,45.0,96,29.30,6.0,SSE,21.9,28.8,0.05,Rain,Light Rain,160,2012-12-20 22:52:00
6:52 PM,46.9,45.0,93,29.27,8.0,SSE,20.7,35.7,0.02,Rain,Light Rain,160,2012-12-20 23:52:00
7:22 PM,46.4,44.6,93,29.25,5.0,SSE,20.7,31.1,0.04,Rain,Rain,160,2012-12-21 00:22:00
7:42 PM,44.6,42.8,93,29.29,2.5,SW,36.8,50.6,0.12,Rain,Heavy Rain,220,2012-12-21 00:42:00
7:44 PM,44.6,42.8,93,29.28,5.0,SW,23.0,50.6,0.13,Rain,Heavy Rain,220,2012-12-21 00:44:00
7:52 PM,43.0,37.9,82,29.30,5.0,SW,24.2,42.6,0.14,Rain,Light Rain,220,2012-12-21 00:52:00
8:52 PM,42.1,34.0,73,29.32,10.0,SSW,26.5,34.5,0.00,,Overcast,200,2012-12-21 01:52:00
9:04 PM,39.2,33.8,81,29.31,7.0,SSW,33.4,47.2,0.00,Rain,Light Rain,210,2012-12-21 02:04:00
9:26 PM,37.4,30.2,75,29.32,10.0,SSW,28.8,40.3,0.00,,Overcast,210,2012-12-21 02:26:00
9:52 PM,37.0,30.0,76,29.34,10.0,SSW,32.2,41.4,0.00,,Overcast,200,2012-12-21 02:52:00
10:12 PM,35.6,28.4,75,29.32,8.0,SSW,25.3,39.1,0.00,Snow,Light Snow,210,2012-12-21 03:12:00
10:37 PM,35.6,28.4,75,29.32,10.0,SSW,23.0,42.6,0.00,,Overcast,210,2012-12-21 03:37:00
10:52 PM,35.1,27.0,72,29.33,10.0,SSW,27.6,43.7,0.00,,Overcast,210,2012-12-21 03:52:00
11:38 PM,33.8,26.6,75,29.32,2.5,SSW,24.2,40.3,0.00,Snow,Light Snow,200,2012-12-21 04:38:00
11:42 PM,33.8,26.6,75,29.31,3.0,SSW,26.5,39.1,0.00,Snow,Light Snow,210,2012-12-21 04:42:00
11:52 PM,33.1,27.0,78,29.33,4.0,SSW,27.6,40.3,0.00,Snow,Light Snow,210,2012-12-21 04:52:00